createdAt,value
2018-05-14T00:00:30.193Z,0.00
2018-05-14T00:01:30.149Z,0.00
2018-05-14T00:02:30.106Z,0.00
2018-05-14T00:03:30.063Z,0.00
2018-05-14T00:04:30.021Z,0.00
2018-05-14T00:05:29.977Z,0.00
2018-05-14T00:06:29.938Z,0.00
2018-05-14T00:07:29.892Z,0.00
2018-05-14T00:08:29.849Z,0.00
2018-05-14T00:09:29.805Z,0.00
2018-05-14T00:10:29.765Z,0.00
2018-05-14T00:11:29.720Z,0.00
2018-05-14T00:12:29.677Z,0.00
2018-05-14T00:13:29.634Z,0.00
2018-05-14T00:14:29.590Z,0.00
2018-05-14T00:15:29.547Z,0.00
2018-05-14T00:16:29.504Z,0.00
2018-05-14T00:17:29.460Z,0.00
2018-05-14T00:18:29.417Z,0.00
2018-05-14T00:19:29.375Z,0.00
2018-05-14T00:20:29.332Z,0.00
2018-05-14T00:21:29.291Z,0.00
2018-05-14T00:22:29.245Z,0.00
2018-05-14T00:23:29.202Z,0.00
2018-05-14T00:24:29.161Z,0.00
2018-05-14T00:25:29.116Z,0.00
2018-05-14T00:26:29.073Z,0.00
2018-05-14T00:27:29.031Z,0.00
2018-05-14T00:28:28.990Z,0.00
2018-05-14T00:29:28.944Z,0.00
2018-05-14T00:30:28.901Z,0.00
2018-05-14T00:31:28.858Z,0.00
2018-05-14T00:32:28.815Z,0.00
2018-05-14T00:33:28.771Z,0.00
2018-05-14T00:34:28.728Z,0.00
2018-05-14T00:35:28.685Z,0.00
2018-05-14T00:36:28.643Z,0.00
2018-05-14T00:37:28.599Z,0.00
2018-05-14T00:38:28.556Z,0.00
2018-05-14T00:39:28.513Z,0.00
2018-05-14T00:40:28.472Z,0.00
2018-05-14T00:41:28.426Z,0.00
2018-05-14T00:42:28.383Z,0.00
2018-05-14T00:43:28.341Z,0.00
2018-05-14T00:44:28.297Z,0.00
2018-05-14T00:45:28.256Z,0.00
2018-05-14T00:46:28.211Z,0.00
2018-05-14T00:47:28.218Z,0.00
2018-05-14T00:48:28.129Z,0.00
2018-05-14T00:49:28.137Z,0.00
2018-05-14T00:50:28.038Z,0.00
2018-05-14T00:51:28.002Z,0.00
2018-05-14T00:52:27.952Z,0.00
2018-05-14T00:53:27.908Z,0.00
2018-05-14T00:54:27.865Z,0.00
2018-05-14T00:55:27.822Z,0.00
2018-05-14T00:56:27.779Z,0.00
2018-05-14T00:57:27.738Z,0.00
2018-05-14T00:58:27.692Z,0.00
2018-05-14T00:59:28.150Z,0.00
2018-05-14T01:00:27.607Z,0.00
2018-05-14T01:01:27.914Z,0.00
2018-05-14T01:02:27.521Z,0.00
2018-05-14T01:03:27.478Z,0.00
2018-05-14T01:04:27.433Z,0.00
2018-05-14T01:05:27.388Z,0.00
2018-05-14T01:06:27.346Z,0.00
2018-05-14T01:07:27.310Z,0.00
2018-05-14T01:08:27.259Z,0.00
2018-05-14T01:09:27.215Z,0.00
2018-05-14T01:10:27.180Z,0.00
2018-05-14T01:11:27.131Z,0.00
2018-05-14T01:12:27.089Z,0.00
2018-05-14T01:13:27.042Z,0.00
2018-05-14T01:14:26.999Z,0.00
2018-05-14T01:15:26.957Z,0.00
2018-05-14T01:16:26.913Z,0.00
2018-05-14T01:17:26.869Z,0.00
2018-05-14T01:18:26.825Z,0.00
2018-05-14T01:19:26.783Z,0.00
2018-05-14T01:20:26.740Z,0.00
2018-05-14T01:21:26.695Z,0.00
2018-05-14T01:22:26.652Z,0.00
2018-05-14T01:23:26.659Z,0.00
2018-05-14T01:24:26.566Z,0.00
2018-05-14T01:25:26.607Z,0.00
2018-05-14T01:26:26.480Z,0.00
2018-05-14T01:27:26.436Z,0.00
2018-05-14T01:28:26.392Z,0.00
2018-05-14T01:29:26.819Z,0.00
2018-05-14T01:30:26.305Z,0.00
2018-05-14T01:31:26.712Z,0.00
2018-05-14T01:32:26.619Z,0.00
2018-05-14T01:33:26.524Z,0.00
2018-05-14T01:34:26.434Z,0.00
2018-05-14T01:35:26.438Z,0.00
2018-05-14T01:36:26.345Z,0.00
2018-05-14T01:37:26.200Z,0.00
2018-05-14T01:38:26.106Z,0.00
2018-05-14T01:39:26.114Z,0.00
2018-05-14T01:40:26.021Z,0.00
2018-05-14T01:41:25.877Z,0.00
2018-05-14T01:42:25.783Z,0.00
2018-05-14T01:43:25.740Z,0.00
2018-05-14T01:44:25.696Z,0.00
2018-05-14T01:45:25.658Z,0.00
2018-05-14T01:46:25.609Z,0.00
2018-05-14T01:47:25.568Z,0.00
2018-05-14T01:48:25.522Z,0.00
2018-05-14T01:49:25.478Z,0.00
2018-05-14T01:50:25.434Z,0.00
2018-05-14T01:51:25.391Z,0.00
2018-05-14T01:52:25.347Z,0.00
2018-05-14T01:53:25.305Z,0.00
2018-05-14T01:54:25.268Z,0.00
2018-05-14T01:55:25.216Z,0.00
2018-05-14T01:56:25.172Z,0.00
2018-05-14T01:57:25.128Z,0.00
2018-05-14T01:58:25.084Z,0.00
2018-05-14T01:59:25.045Z,0.00
2018-05-14T02:00:24.998Z,0.00
2018-05-14T02:01:24.953Z,0.00
2018-05-14T02:02:24.910Z,0.00
2018-05-14T02:03:24.866Z,0.00
2018-05-14T02:04:24.831Z,0.00
2018-05-14T02:05:24.778Z,0.00
2018-05-14T02:06:24.734Z,0.00
2018-05-14T02:07:24.696Z,0.00
2018-05-14T02:08:24.648Z,0.00
2018-05-14T02:09:24.605Z,0.00
2018-05-14T02:10:24.759Z,0.00
2018-05-14T02:11:24.520Z,0.00
2018-05-14T02:12:24.472Z,0.00
2018-05-14T02:13:24.427Z,0.00
2018-05-14T02:14:24.384Z,0.00
2018-05-14T02:15:24.341Z,0.00
2018-05-14T02:16:24.297Z,0.00
2018-05-14T02:17:24.252Z,0.00
2018-05-14T02:18:24.209Z,0.00
2018-05-14T02:19:24.168Z,0.00
2018-05-14T02:20:24.125Z,0.00
2018-05-14T02:21:24.077Z,0.00
2018-05-14T02:22:24.033Z,0.00
2018-05-14T02:23:23.990Z,0.00
2018-05-14T02:24:23.946Z,0.00
2018-05-14T02:25:23.902Z,0.00
2018-05-14T02:26:23.858Z,0.00
2018-05-14T02:27:23.819Z,0.00
2018-05-14T02:28:23.770Z,0.00
2018-05-14T02:29:23.798Z,0.00
2018-05-14T02:30:23.682Z,0.00
2018-05-14T02:31:23.639Z,0.00
2018-05-14T02:32:23.596Z,0.00
2018-05-14T02:33:23.551Z,0.00
2018-05-14T02:34:23.508Z,0.00
2018-05-14T02:35:23.464Z,0.00
2018-05-14T02:36:23.420Z,4.00
2018-05-14T02:37:23.377Z,4.00
2018-05-14T02:38:23.332Z,0.00
2018-05-14T02:39:23.288Z,0.00
2018-05-14T02:40:23.247Z,4.00
2018-05-14T02:41:23.301Z,4.00
2018-05-14T02:42:23.157Z,4.00
2018-05-14T02:43:23.114Z,4.00
2018-05-14T02:44:23.069Z,4.00
2018-05-14T02:45:23.024Z,4.00
2018-05-14T02:46:22.981Z,4.00
2018-05-14T02:47:22.937Z,8.00
2018-05-14T02:48:22.894Z,8.00
2018-05-14T02:49:22.853Z,8.00
2018-05-14T02:50:22.805Z,12.00
2018-05-14T02:51:22.761Z,12.00
2018-05-14T02:52:22.717Z,16.00
2018-05-14T02:53:22.673Z,12.00
2018-05-14T02:54:22.629Z,16.00
2018-05-14T02:55:22.585Z,20.00
2018-05-14T02:56:22.542Z,20.00
2018-05-14T02:57:22.497Z,28.00
2018-05-14T02:58:22.453Z,28.00
2018-05-14T02:59:22.409Z,32.00
2018-05-14T03:00:22.367Z,32.00
2018-05-14T03:01:22.329Z,36.00
2018-05-14T03:02:22.277Z,40.00
2018-05-14T03:03:22.234Z,48.00
2018-05-14T03:04:22.190Z,48.00
2018-05-14T03:05:22.145Z,56.00
2018-05-14T03:06:22.101Z,60.00
2018-05-14T03:07:22.057Z,64.00
2018-05-14T03:08:22.014Z,76.00
2018-05-14T03:09:21.970Z,80.00
2018-05-14T03:10:22.016Z,88.00
2018-05-14T03:11:21.884Z,92.00
2018-05-14T03:12:21.838Z,104.00
2018-05-14T03:13:21.795Z,108.00
2018-05-14T03:14:21.749Z,120.00
2018-05-14T03:15:21.711Z,128.00
2018-05-14T03:16:21.662Z,136.00
2018-05-14T03:17:21.617Z,144.00
2018-05-14T03:18:21.573Z,156.00
2018-05-14T03:19:21.529Z,168.00
2018-05-14T03:20:21.487Z,176.00
2018-05-14T03:21:21.741Z,188.00
2018-05-14T03:22:21.397Z,204.00
2018-05-14T03:23:21.354Z,216.00
2018-05-14T03:24:21.310Z,228.00
2018-05-14T03:25:21.265Z,244.00
2018-05-14T03:26:21.221Z,260.00
2018-05-14T03:27:21.177Z,276.00
2018-05-14T03:28:21.134Z,288.00
2018-05-14T03:29:21.089Z,304.00
2018-05-14T03:30:21.051Z,320.00
2018-05-14T03:31:21.001Z,332.00
2018-05-14T03:32:20.960Z,352.00
2018-05-14T03:33:20.912Z,368.00
2018-05-14T03:34:20.868Z,388.00
2018-05-14T03:35:20.826Z,408.00
2018-05-14T03:36:20.781Z,420.00
2018-05-14T03:37:20.736Z,440.00
2018-05-14T03:38:20.694Z,460.00
2018-05-14T03:39:20.648Z,480.00
2018-05-14T03:40:20.605Z,496.00
2018-05-14T03:41:20.560Z,516.00
2018-05-14T03:42:20.520Z,532.00
2018-05-14T03:43:20.472Z,548.00
2018-05-14T03:44:20.429Z,564.00
2018-05-14T03:45:20.384Z,580.00
2018-05-14T03:46:20.339Z,592.00
2018-05-14T03:47:20.296Z,612.00
2018-05-14T03:48:20.253Z,632.00
2018-05-14T03:49:20.207Z,648.00
2018-05-14T03:50:20.164Z,664.00
2018-05-14T03:51:20.121Z,684.00
2018-05-14T03:52:20.077Z,704.00
2018-05-14T03:53:20.032Z,724.00
2018-05-14T03:54:19.988Z,748.00
2018-05-14T03:55:19.944Z,768.00
2018-05-14T03:56:19.900Z,796.00
2018-05-14T03:57:19.862Z,824.00
2018-05-14T03:58:19.812Z,848.00
2018-05-14T03:59:19.772Z,872.00
2018-05-14T04:00:19.724Z,892.00
2018-05-14T04:01:19.679Z,916.00
2018-05-14T04:02:19.678Z,940.00
2018-05-14T04:03:19.592Z,968.00
2018-05-14T04:04:19.799Z,992.00
2018-05-14T04:05:19.503Z,1020.00
2018-05-14T04:06:19.460Z,1044.00
2018-05-14T04:07:19.416Z,1076.00
2018-05-14T04:08:19.468Z,1100.00
2018-05-14T04:09:19.327Z,1120.00
2018-05-14T04:10:19.283Z,1148.00
2018-05-14T04:11:19.240Z,1172.00
2018-05-14T04:12:19.201Z,1200.00
2018-05-14T04:13:19.150Z,1232.00
2018-05-14T04:14:19.111Z,1260.00
2018-05-14T04:15:19.064Z,1296.00
2018-05-14T04:16:19.020Z,1324.00
2018-05-14T04:17:18.978Z,1352.00
2018-05-14T04:18:18.931Z,1384.00
2018-05-14T04:19:18.888Z,1420.00
2018-05-14T04:20:18.844Z,1448.00
2018-05-14T04:21:18.801Z,1480.00
2018-05-14T04:22:18.755Z,1508.00
2018-05-14T04:23:18.711Z,1544.00
2018-05-14T04:24:18.726Z,1576.00
2018-05-14T04:25:18.623Z,1604.00
2018-05-14T04:26:18.580Z,1636.00
2018-05-14T04:27:18.535Z,1664.00
2018-05-14T04:28:18.991Z,1688.00
2018-05-14T04:29:18.446Z,1716.00
2018-05-14T04:30:18.510Z,1740.00
2018-05-14T04:31:18.359Z,1764.00
2018-05-14T04:32:18.315Z,1792.00
2018-05-14T04:33:18.274Z,1820.00
2018-05-14T04:34:18.227Z,1856.00
2018-05-14T04:35:18.183Z,1892.00
2018-05-14T04:36:18.141Z,1920.00
2018-05-14T04:37:18.095Z,1948.00
2018-05-14T04:38:18.051Z,1984.00
2018-05-14T04:39:18.008Z,2024.00
2018-05-14T04:40:17.967Z,2060.00
2018-05-14T04:41:17.920Z,2096.00
2018-05-14T04:42:17.876Z,2140.00
2018-05-14T04:43:17.832Z,2180.00
2018-05-14T04:44:17.789Z,2224.00
2018-05-14T04:45:17.744Z,2272.00
2018-05-14T04:46:17.703Z,2320.00
2018-05-14T04:47:17.657Z,2380.00
2018-05-14T04:48:17.614Z,2440.00
2018-05-14T04:49:17.573Z,2500.00
2018-05-14T04:50:17.526Z,2568.00
2018-05-14T04:51:17.482Z,2640.00
2018-05-14T04:52:17.439Z,2756.00
2018-05-14T04:53:17.394Z,2956.00
2018-05-14T04:54:17.350Z,3620.00
2018-05-14T04:55:17.307Z,6296.00
2018-05-14T04:56:17.264Z,10352.00
2018-05-14T04:57:17.219Z,13696.00
2018-05-14T04:58:17.180Z,14752.00
2018-05-14T04:59:17.195Z,15104.00
2018-05-14T05:00:17.089Z,15264.00
2018-05-14T05:01:17.045Z,15392.00
2018-05-14T05:02:17.002Z,15552.00
2018-05-14T05:03:16.992Z,15744.00
2018-05-14T05:04:16.919Z,16032.00
2018-05-14T05:05:16.874Z,16384.00
2018-05-14T05:06:16.833Z,16512.00
2018-05-14T05:07:16.791Z,16832.00
2018-05-14T05:08:16.750Z,17056.00
2018-05-14T05:09:16.711Z,17440.00
2018-05-14T05:10:17.218Z,17824.00
2018-05-14T05:11:16.629Z,18208.00
2018-05-14T05:12:16.587Z,18368.00
2018-05-14T05:13:16.997Z,18560.00
2018-05-14T05:14:16.856Z,18656.00
2018-05-14T05:15:16.769Z,18656.00
2018-05-14T05:16:16.780Z,18880.00
2018-05-14T05:17:16.732Z,19040.00
2018-05-14T05:18:16.602Z,19264.00
2018-05-14T05:19:16.461Z,19360.00
2018-05-14T05:20:16.473Z,19296.00
2018-05-14T05:21:16.384Z,19392.00
2018-05-14T05:22:16.299Z,19648.00
2018-05-14T05:23:16.159Z,19872.00
2018-05-14T05:24:16.123Z,20064.00
2018-05-14T05:25:16.083Z,20448.00
2018-05-14T05:26:16.046Z,20800.00
2018-05-14T05:27:16.009Z,21088.00
2018-05-14T05:28:16.013Z,21216.00
2018-05-14T05:29:15.934Z,21248.00
2018-05-14T05:30:15.898Z,21472.00
2018-05-14T05:31:15.862Z,21760.00
2018-05-14T05:32:15.825Z,21792.00
2018-05-14T05:33:15.789Z,21728.00
2018-05-14T05:34:15.753Z,21888.00
2018-05-14T05:35:15.718Z,22240.00
2018-05-14T05:36:15.684Z,22496.00
2018-05-14T05:37:15.996Z,22656.00
2018-05-14T05:38:15.609Z,22816.00
2018-05-14T05:39:15.627Z,23200.00
2018-05-14T05:40:15.547Z,23200.00
2018-05-14T05:41:15.503Z,23360.00
2018-05-14T05:42:15.468Z,23616.00
2018-05-14T05:43:15.433Z,24128.00
2018-05-14T05:44:15.399Z,24672.00
2018-05-14T05:45:15.454Z,25344.00
2018-05-14T05:46:15.328Z,26016.00
2018-05-14T05:47:15.294Z,26912.00
2018-05-14T05:48:15.260Z,28064.00
2018-05-14T05:49:15.231Z,29024.00
2018-05-14T05:50:15.190Z,29952.00
2018-05-14T05:51:15.157Z,30560.00
2018-05-14T05:52:15.122Z,30912.00
2018-05-14T05:53:15.087Z,30944.00
2018-05-14T05:54:15.053Z,30976.00
2018-05-14T05:55:15.019Z,30944.00
2018-05-14T05:56:14.991Z,31168.00
2018-05-14T05:57:14.950Z,30976.00
2018-05-14T05:58:14.916Z,30720.00
2018-05-14T05:59:14.885Z,31424.00
2018-05-14T06:00:14.849Z,32512.00
2018-05-14T06:01:14.856Z,32672.00
2018-05-14T06:02:14.781Z,32928.00
2018-05-14T06:03:14.953Z,33504.00
2018-05-14T06:04:14.714Z,33664.00
2018-05-14T06:05:14.680Z,33408.00
2018-05-14T06:06:14.647Z,33344.00
2018-05-14T06:07:14.618Z,33504.00
2018-05-14T06:08:14.581Z,34048.00
2018-05-14T06:09:14.547Z,34144.00
2018-05-14T06:10:14.514Z,33920.00
2018-05-14T06:11:14.481Z,34336.00
2018-05-14T06:12:14.448Z,34592.00
2018-05-14T06:13:14.419Z,34944.00
2018-05-14T06:14:14.382Z,35200.00
2018-05-14T06:15:14.348Z,35456.00
2018-05-14T06:16:14.316Z,35232.00
2018-05-14T06:17:14.284Z,35104.00
2018-05-14T06:18:14.251Z,35264.00
2018-05-14T06:19:14.219Z,35584.00
2018-05-14T06:20:14.187Z,35808.00
2018-05-14T06:21:14.153Z,35712.00
2018-05-14T06:22:14.124Z,35968.00
2018-05-14T06:23:14.089Z,36640.00
2018-05-14T06:24:14.057Z,36736.00
2018-05-14T06:25:14.026Z,37472.00
2018-05-14T06:26:13.992Z,37920.00
2018-05-14T06:27:13.960Z,38016.00
2018-05-14T06:28:13.979Z,37792.00
2018-05-14T06:29:13.897Z,37760.00
2018-05-14T06:30:13.865Z,37600.00
2018-05-14T06:31:13.832Z,37504.00
2018-05-14T06:32:13.801Z,37600.00
2018-05-14T06:33:13.769Z,37824.00
2018-05-14T06:34:13.738Z,38112.00
2018-05-14T06:35:13.713Z,38528.00
2018-05-14T06:36:13.675Z,39392.00
2018-05-14T06:37:13.644Z,39840.00
2018-05-14T06:38:13.814Z,40256.00
2018-05-14T06:39:13.582Z,39392.00
2018-05-14T06:40:13.551Z,39584.00
2018-05-14T06:41:13.521Z,39680.00
2018-05-14T06:42:13.489Z,39552.00
2018-05-14T06:43:13.458Z,39456.00
2018-05-14T06:44:13.427Z,39520.00
2018-05-14T06:45:13.399Z,39520.00
2018-05-14T06:46:13.665Z,39456.00
2018-05-14T06:47:13.334Z,39680.00
2018-05-14T06:48:13.304Z,39680.00
2018-05-14T06:49:13.275Z,40064.00
2018-05-14T06:50:13.243Z,40096.00
2018-05-14T06:51:13.211Z,40096.00
2018-05-14T06:52:13.182Z,40544.00
2018-05-14T06:53:13.151Z,40416.00
2018-05-14T06:54:13.120Z,40160.00
2018-05-14T06:55:13.351Z,40384.00
2018-05-14T06:56:13.062Z,40544.00
2018-05-14T06:57:13.031Z,40864.00
2018-05-14T06:58:13.000Z,40384.00
2018-05-14T06:59:12.971Z,40544.00
2018-05-14T07:00:12.941Z,40608.00
2018-05-14T07:01:12.909Z,40832.00
2018-05-14T07:02:12.929Z,40960.00
2018-05-14T07:03:12.855Z,41120.00
2018-05-14T07:04:12.822Z,41024.00
2018-05-14T07:05:12.790Z,40832.00
2018-05-14T07:06:12.761Z,40704.00
2018-05-14T07:07:12.731Z,40320.00
2018-05-14T07:08:12.702Z,40160.00
2018-05-14T07:09:12.671Z,40096.00
2018-05-14T07:10:12.642Z,39680.00
2018-05-14T07:11:12.613Z,39232.00
2018-05-14T07:12:12.584Z,39488.00
2018-05-14T07:13:12.554Z,39232.00
2018-05-14T07:14:12.531Z,39008.00
2018-05-14T07:15:12.496Z,38336.00
2018-05-14T07:16:12.468Z,39232.00
2018-05-14T07:17:12.438Z,39200.00
2018-05-14T07:18:12.409Z,40960.00
2018-05-14T07:19:12.584Z,40800.00
2018-05-14T07:20:12.352Z,41792.00
2018-05-14T07:21:12.322Z,41024.00
2018-05-14T07:22:12.294Z,41536.00
2018-05-14T07:23:12.266Z,41056.00
2018-05-14T07:24:12.237Z,42464.00
2018-05-14T07:25:12.357Z,40512.00
2018-05-14T07:26:12.179Z,40736.00
2018-05-14T07:27:12.150Z,43616.00
2018-05-14T07:28:12.122Z,38720.00
2018-05-14T07:29:12.093Z,37184.00
2018-05-14T07:30:12.085Z,38944.00
2018-05-14T07:31:12.086Z,43616.00
2018-05-14T07:32:12.069Z,43072.00
2018-05-14T07:33:11.977Z,43520.00
2018-05-14T07:34:11.950Z,43904.00
2018-05-14T07:35:11.922Z,45056.00
2018-05-14T07:36:11.957Z,45248.00
2018-05-14T07:37:11.864Z,44992.00
2018-05-14T07:38:11.835Z,45696.00
2018-05-14T07:39:11.807Z,47328.00
2018-05-14T07:40:11.779Z,48480.00
2018-05-14T07:41:11.749Z,47872.00
2018-05-14T07:42:11.721Z,47008.00
2018-05-14T07:43:11.693Z,47360.00
2018-05-14T07:44:11.669Z,46976.00
2018-05-14T07:45:11.636Z,44960.00
2018-05-14T07:46:11.614Z,41600.00
2018-05-14T07:47:11.579Z,45056.00
2018-05-14T07:48:11.552Z,46208.00
2018-05-14T07:49:11.523Z,45600.00
2018-05-14T07:50:11.495Z,45408.00
2018-05-14T07:51:11.466Z,45440.00
2018-05-14T07:52:11.439Z,44768.00
2018-05-14T07:53:11.415Z,42592.00
2018-05-14T07:54:11.383Z,45728.00
2018-05-14T07:55:11.355Z,46784.00
2018-05-14T07:56:11.327Z,47008.00
2018-05-14T07:57:11.299Z,46464.00
2018-05-14T07:58:11.271Z,46496.00
2018-05-14T07:59:11.243Z,46944.00
2018-05-14T08:00:11.584Z,46560.00
2018-05-14T08:01:11.187Z,46912.00
2018-05-14T08:02:11.160Z,47424.00
2018-05-14T08:03:11.219Z,47488.00
2018-05-14T08:04:11.105Z,48032.00
2018-05-14T08:05:11.077Z,48000.00
2018-05-14T08:06:11.051Z,48064.00
2018-05-14T08:07:11.025Z,48096.00
2018-05-14T08:08:11.004Z,48512.00
2018-05-14T08:09:10.968Z,47936.00
2018-05-14T08:10:10.944Z,47616.00
2018-05-14T08:11:10.913Z,47328.00
2018-05-14T08:12:10.888Z,47584.00
2018-05-14T08:13:11.311Z,47104.00
2018-05-14T08:14:11.243Z,45536.00
2018-05-14T08:15:11.112Z,45184.00
2018-05-14T08:16:11.133Z,45760.00
2018-05-14T08:17:11.007Z,45024.00
2018-05-14T08:18:10.931Z,44288.00
2018-05-14T08:19:10.856Z,44192.00
2018-05-14T08:20:10.779Z,43904.00
2018-05-14T08:21:10.803Z,43104.00
2018-05-14T08:22:10.678Z,43264.00
2018-05-14T08:23:10.601Z,42976.00
2018-05-14T08:24:10.576Z,43104.00
2018-05-14T08:25:10.549Z,43200.00
2018-05-14T08:26:10.524Z,42976.00
2018-05-14T08:27:10.497Z,43552.00
2018-05-14T08:28:10.473Z,44000.00
2018-05-14T08:29:10.443Z,43168.00
2018-05-14T08:30:10.416Z,42624.00
2018-05-14T08:31:10.391Z,42592.00
2018-05-14T08:32:10.364Z,42272.00
2018-05-14T08:33:10.338Z,41760.00
2018-05-14T08:34:10.311Z,41248.00
2018-05-14T08:35:10.439Z,40960.00
2018-05-14T08:36:10.258Z,40576.00
2018-05-14T08:37:10.307Z,39744.00
2018-05-14T08:38:10.209Z,39776.00
2018-05-14T08:39:10.178Z,40096.00
2018-05-14T08:40:10.158Z,40256.00
2018-05-14T08:41:10.124Z,40032.00
2018-05-14T08:42:10.098Z,38464.00
2018-05-14T08:43:10.072Z,36672.00
2018-05-14T08:44:10.046Z,35712.00
2018-05-14T08:45:10.018Z,34432.00
2018-05-14T08:46:09.993Z,33568.00
2018-05-14T08:47:09.966Z,33408.00
2018-05-14T08:48:09.940Z,33088.00
2018-05-14T08:49:09.911Z,32928.00
2018-05-14T08:50:09.886Z,32672.00
2018-05-14T08:51:09.861Z,32736.00
2018-05-14T08:52:09.832Z,32896.00
2018-05-14T08:53:09.805Z,32928.00
2018-05-14T08:54:09.875Z,32800.00
2018-05-14T08:55:09.751Z,32672.00
2018-05-14T08:56:09.725Z,32928.00
2018-05-14T08:57:09.699Z,32864.00
2018-05-14T08:58:09.690Z,32896.00
2018-05-14T08:59:09.645Z,32960.00
2018-05-14T09:00:09.621Z,33120.00
2018-05-14T09:01:09.600Z,32960.00
2018-05-14T09:02:09.566Z,32992.00
2018-05-14T09:03:09.541Z,32960.00
2018-05-14T09:04:09.539Z,33056.00
2018-05-14T09:05:09.490Z,33760.00
2018-05-14T09:06:09.467Z,35264.00
2018-05-14T09:07:09.787Z,36320.00
2018-05-14T09:08:09.410Z,37472.00
2018-05-14T09:09:09.383Z,39040.00
2018-05-14T09:10:09.357Z,39232.00
2018-05-14T09:11:09.335Z,41024.00
2018-05-14T09:12:09.308Z,43552.00
2018-05-14T09:13:09.280Z,41856.00
2018-05-14T09:14:09.255Z,38848.00
2018-05-14T09:15:09.277Z,38144.00
2018-05-14T09:16:09.201Z,39616.00
2018-05-14T09:17:09.173Z,42304.00
2018-05-14T09:18:09.147Z,46720.00
2018-05-14T09:19:09.120Z,44832.00
2018-05-14T09:20:09.093Z,41152.00
2018-05-14T09:21:09.068Z,40864.00
2018-05-14T09:22:09.041Z,41120.00
2018-05-14T09:23:09.015Z,38592.00
2018-05-14T09:24:08.996Z,36576.00
2018-05-14T09:25:08.961Z,34144.00
2018-05-14T09:26:08.971Z,32896.00
2018-05-14T09:27:08.913Z,32704.00
2018-05-14T09:28:08.885Z,32416.00
2018-05-14T09:29:08.860Z,31840.00
2018-05-14T09:30:08.831Z,31392.00
2018-05-14T09:31:08.805Z,30688.00
2018-05-14T09:32:08.783Z,29792.00
2018-05-14T09:33:08.751Z,29088.00
2018-05-14T09:34:08.725Z,28032.00
2018-05-14T09:35:08.699Z,26528.00
2018-05-14T09:36:08.672Z,26080.00
2018-05-14T09:37:08.644Z,25632.00
2018-05-14T09:38:08.621Z,25472.00
2018-05-14T09:39:08.592Z,25056.00
2018-05-14T09:40:08.565Z,24160.00
2018-05-14T09:41:08.540Z,22944.00
2018-05-14T09:42:08.512Z,21248.00
2018-05-14T09:43:08.483Z,17536.00
2018-05-14T09:44:08.455Z,11840.00
2018-05-14T09:45:08.430Z,7068.00
2018-05-14T09:46:08.400Z,4560.00
2018-05-14T09:47:08.372Z,4036.00
2018-05-14T09:48:08.343Z,3936.00
2018-05-14T09:49:08.315Z,3908.00
2018-05-14T09:50:08.288Z,3904.00
2018-05-14T09:51:08.259Z,3888.00
2018-05-14T09:52:08.228Z,3880.00
2018-05-14T09:53:08.198Z,3888.00
2018-05-14T09:54:08.167Z,3912.00
2018-05-14T09:55:08.137Z,3940.00
2018-05-14T09:56:08.106Z,4032.00
2018-05-14T09:57:08.073Z,4264.00
2018-05-14T09:58:08.045Z,4632.00
2018-05-14T09:59:08.009Z,3288.00
2018-05-14T10:00:07.976Z,4276.00
2018-05-14T10:01:07.943Z,3724.00
2018-05-14T10:02:07.910Z,3724.00
2018-05-14T10:03:07.876Z,3780.00
2018-05-14T10:04:07.843Z,3772.00
2018-05-14T10:05:07.808Z,3716.00
2018-05-14T10:06:07.775Z,3764.00
2018-05-14T10:07:07.739Z,3900.00
2018-05-14T10:08:07.706Z,4032.00
2018-05-14T10:09:07.671Z,4264.00
2018-05-14T10:10:07.986Z,4884.00
2018-05-14T10:11:07.600Z,5324.00
2018-05-14T10:12:07.567Z,3540.00
2018-05-14T10:13:07.719Z,3636.00
2018-05-14T10:14:07.495Z,3568.00
2018-05-14T10:15:07.461Z,3432.00
2018-05-14T10:16:07.425Z,3380.00
2018-05-14T10:17:07.388Z,3388.00
2018-05-14T10:18:07.352Z,3328.00
2018-05-14T10:19:07.320Z,3256.00
2018-05-14T10:20:07.280Z,3236.00
2018-05-14T10:21:07.243Z,3192.00
2018-05-14T10:22:07.211Z,3148.00
2018-05-14T10:23:07.170Z,3128.00
2018-05-14T10:24:07.133Z,3076.00
2018-05-14T10:25:07.096Z,3056.00
2018-05-14T10:26:07.059Z,2996.00
2018-05-14T10:27:07.023Z,3008.00
2018-05-14T10:28:06.986Z,3000.00
2018-05-14T10:29:06.954Z,2984.00
2018-05-14T10:30:06.913Z,2980.00
2018-05-14T10:31:06.874Z,3484.00
2018-05-14T10:32:06.872Z,3412.00
2018-05-14T10:33:06.798Z,3348.00
2018-05-14T10:34:06.760Z,3384.00
2018-05-14T10:35:06.723Z,3368.00
2018-05-14T10:36:06.684Z,3344.00
2018-05-14T10:37:06.645Z,3320.00
2018-05-14T10:38:06.608Z,3340.00
2018-05-14T10:39:06.570Z,3320.00
2018-05-14T10:40:06.534Z,3280.00
2018-05-14T10:41:06.492Z,3300.00
2018-05-14T10:42:06.453Z,3308.00
2018-05-14T10:43:06.419Z,3300.00
2018-05-14T10:44:06.378Z,3292.00
2018-05-14T10:45:06.338Z,3292.00
2018-05-14T10:46:06.300Z,3340.00
2018-05-14T10:47:06.262Z,3296.00
2018-05-14T10:48:06.224Z,3272.00
2018-05-14T10:49:06.184Z,3276.00
2018-05-14T10:50:06.147Z,3288.00
2018-05-14T10:51:06.111Z,3256.00
2018-05-14T10:52:06.069Z,3220.00
2018-05-14T10:53:06.031Z,3212.00
2018-05-14T10:54:05.992Z,3224.00
2018-05-14T10:55:05.954Z,3212.00
2018-05-14T10:56:05.915Z,3152.00
2018-05-14T10:57:05.877Z,3156.00
2018-05-14T10:58:05.837Z,3132.00
2018-05-14T10:59:05.801Z,3140.00
2018-05-14T11:00:05.761Z,3148.00
2018-05-14T11:01:05.720Z,3128.00
2018-05-14T11:02:05.680Z,3136.00
2018-05-14T11:03:05.655Z,3100.00
2018-05-14T11:04:05.688Z,3120.00
2018-05-14T11:05:05.567Z,3100.00
2018-05-14T11:06:05.526Z,3132.00
2018-05-14T11:07:05.486Z,3076.00
2018-05-14T11:08:05.498Z,3080.00
2018-05-14T11:09:05.408Z,3076.00
2018-05-14T11:10:05.370Z,3068.00
2018-05-14T11:11:05.331Z,3060.00
2018-05-14T11:12:05.292Z,3044.00
2018-05-14T11:13:05.302Z,3020.00
2018-05-14T11:14:05.213Z,3004.00
2018-05-14T11:15:05.176Z,2984.00
2018-05-14T11:16:05.136Z,2972.00
2018-05-14T11:17:05.098Z,3008.00
2018-05-14T11:18:05.461Z,2992.00
2018-05-14T11:19:05.368Z,3012.00
2018-05-14T11:20:05.279Z,2924.00
2018-05-14T11:21:05.288Z,2912.00
2018-05-14T11:22:05.200Z,2904.00
2018-05-14T11:23:05.060Z,2896.00
2018-05-14T11:24:04.970Z,2904.00
2018-05-14T11:25:04.881Z,2912.00
2018-05-14T11:26:04.940Z,2952.00
2018-05-14T11:27:04.803Z,2856.00
2018-05-14T11:28:04.863Z,2844.00
2018-05-14T11:29:04.622Z,2868.00
2018-05-14T11:30:04.583Z,2832.00
2018-05-14T11:31:04.593Z,2844.00
2018-05-14T11:32:04.505Z,2852.00
2018-05-14T11:33:04.466Z,2848.00
2018-05-14T11:34:04.426Z,2844.00
2018-05-14T11:35:04.388Z,2808.00
2018-05-14T11:36:04.348Z,2808.00
2018-05-14T11:37:04.306Z,2824.00
2018-05-14T11:38:04.270Z,2824.00
2018-05-14T11:39:04.227Z,2816.00
2018-05-14T11:40:04.187Z,2804.00
2018-05-14T11:41:04.145Z,2800.00
2018-05-14T11:42:04.108Z,2852.00
2018-05-14T11:43:04.072Z,2768.00
2018-05-14T11:44:04.028Z,2772.00
2018-05-14T11:45:03.986Z,2780.00
2018-05-14T11:46:03.948Z,2796.00
2018-05-14T11:47:03.909Z,2804.00
2018-05-14T11:48:03.868Z,2740.00
2018-05-14T11:49:03.978Z,2704.00
2018-05-14T11:50:03.788Z,2712.00
2018-05-14T11:51:03.749Z,2700.00
2018-05-14T11:52:03.710Z,2680.00
2018-05-14T11:53:03.669Z,2672.00
2018-05-14T11:54:03.630Z,2656.00
2018-05-14T11:55:03.596Z,2652.00
2018-05-14T11:56:03.550Z,2656.00
2018-05-14T11:57:03.510Z,2640.00
2018-05-14T11:58:03.470Z,2648.00
2018-05-14T11:59:03.430Z,2616.00
2018-05-14T12:00:03.400Z,2620.00
2018-05-14T12:01:03.351Z,2584.00
2018-05-14T12:02:03.316Z,2624.00
2018-05-14T12:03:03.353Z,2564.00
2018-05-14T12:04:03.233Z,2528.00
2018-05-14T12:05:03.192Z,2528.00
2018-05-14T12:06:03.154Z,2520.00
2018-05-14T12:07:03.110Z,2508.00
2018-05-14T12:08:03.072Z,2524.00
2018-05-14T12:09:03.029Z,2504.00
2018-05-14T12:10:03.084Z,2492.00
2018-05-14T12:11:02.949Z,2504.00
2018-05-14T12:12:02.909Z,2472.00
2018-05-14T12:13:02.869Z,2528.00
2018-05-14T12:14:02.828Z,2492.00
2018-05-14T12:15:02.795Z,2476.00